sensor_id;sensor_type;location;lat;lon;timestamp;P1;durP1;ratioP1;P2;durP2;ratioP2
49444;SDS011;35323;43.080;-81.378;2023-07-13T00:01:59;2.45;;;1.92;;
49444;SDS011;35323;43.080;-81.378;2023-07-13T00:04:27;5.45;;;2.15;;
49444;SDS011;35323;43.080;-81.378;2023-07-13T00:06:59;2.80;;;2.60;;
49444;SDS011;35323;43.080;-81.378;2023-07-13T00:09:26;2.53;;;1.48;;
49444;SDS011;35323;43.080;-81.378;2023-07-13T00:11:55;2.35;;;1.90;;
49444;SDS011;35323;43.080;-81.378;2023-07-13T00:14:23;2.38;;;2.17;;
49444;SDS011;35323;43.080;-81.378;2023-07-13T00:16:51;2.38;;;1.75;;
49444;SDS011;35323;43.080;-81.378;2023-07-13T00:19:19;5.40;;;3.42;;
49444;SDS011;35323;43.080;-81.378;2023-07-13T00:21:47;7.22;;;3.65;;
49444;SDS011;35323;43.080;-81.378;2023-07-13T00:24:17;3.60;;;2.08;;
49444;SDS011;35323;43.080;-81.378;2023-07-13T00:26:51;2.13;;;1.65;;
49444;SDS011;35323;43.080;-81.378;2023-07-13T00:29:19;3.15;;;2.03;;
49444;SDS011;35323;43.080;-81.378;2023-07-13T00:31:48;2.45;;;1.95;;
49444;SDS011;35323;43.080;-81.378;2023-07-13T00:34:16;2.80;;;1.67;;
49444;SDS011;35323;43.080;-81.378;2023-07-13T00:36:47;2.75;;;1.98;;
49444;SDS011;35323;43.080;-81.378;2023-07-13T00:39:15;2.60;;;2.00;;
49444;SDS011;35323;43.080;-81.378;2023-07-13T00:41:42;2.83;;;1.60;;
49444;SDS011;35323;43.080;-81.378;2023-07-13T00:44:14;3.38;;;2.45;;
49444;SDS011;35323;43.080;-81.378;2023-07-13T00:46:45;4.70;;;2.20;;
49444;SDS011;35323;43.080;-81.378;2023-07-13T00:49:15;3.53;;;1.98;;
49444;SDS011;35323;43.080;-81.378;2023-07-13T00:51:50;3.15;;;2.58;;
49444;SDS011;35323;43.080;-81.378;2023-07-13T00:54:30;3.92;;;2.33;;
49444;SDS011;35323;43.080;-81.378;2023-07-13T00:56:59;3.30;;;2.17;;
49444;SDS011;35323;43.080;-81.378;2023-07-13T00:59:28;3.15;;;1.98;;
49444;SDS011;35323;43.080;-81.378;2023-07-13T01:01:57;2.97;;;1.92;;
49444;SDS011;35323;43.080;-81.378;2023-07-13T01:04:28;3.47;;;1.98;;
49444;SDS011;35323;43.080;-81.378;2023-07-13T01:06:56;3.15;;;2.20;;
49444;SDS011;35323;43.080;-81.378;2023-07-13T01:09:25;4.90;;;2.35;;
49444;SDS011;35323;43.080;-81.378;2023-07-13T01:11:53;4.03;;;2.33;;
49444;SDS011;35323;43.080;-81.378;2023-07-13T01:14:20;5.25;;;3.45;;
49444;SDS011;35323;43.080;-81.378;2023-07-13T01:16:48;2.25;;;1.85;;
49444;SDS011;35323;43.080;-81.378;2023-07-13T01:21:55;2.45;;;2.10;;
49444;SDS011;35323;43.080;-81.378;2023-07-13T01:24:26;6.30;;;2.08;;
49444;SDS011;35323;43.080;-81.378;2023-07-13T01:26:53;3.60;;;2.35;;
49444;SDS011;35323;43.080;-81.378;2023-07-13T01:29:21;2.60;;;2.20;;
49444;SDS011;35323;43.080;-81.378;2023-07-13T01:31:49;3.17;;;2.40;;
49444;SDS011;35323;43.080;-81.378;2023-07-13T01:34:16;2.47;;;1.60;;
49444;SDS011;35323;43.080;-81.378;2023-07-13T01:36:44;2.03;;;1.75;;
49444;SDS011;35323;43.080;-81.378;2023-07-13T01:39:11;4.93;;;1.98;;
49444;SDS011;35323;43.080;-81.378;2023-07-13T01:41:39;3.28;;;2.28;;
49444;SDS011;35323;43.080;-81.378;2023-07-13T01:44:07;2.58;;;2.38;;
49444;SDS011;35323;43.080;-81.378;2023-07-13T01:46:53;1.95;;;1.45;;
49444;SDS011;35323;43.080;-81.378;2023-07-13T01:49:21;2.17;;;1.67;;
49444;SDS011;35323;43.080;-81.378;2023-07-13T01:51:48;3.60;;;1.65;;
49444;SDS011;35323;43.080;-81.378;2023-07-13T01:54:16;2.10;;;1.90;;
49444;SDS011;35323;43.080;-81.378;2023-07-13T01:56:44;2.25;;;1.98;;
49444;SDS011;35323;43.080;-81.378;2023-07-13T01:59:11;5.20;;;1.65;;
49444;SDS011;35323;43.080;-81.378;2023-07-13T02:01:39;2.28;;;2.08;;
49444;SDS011;35323;43.080;-81.378;2023-07-13T02:04:06;3.42;;;1.88;;
49444;SDS011;35323;43.080;-81.378;2023-07-13T02:06:34;3.13;;;1.98;;
49444;SDS011;35323;43.080;-81.378;2023-07-13T02:09:02;2.50;;;2.30;;
49444;SDS011;35323;43.080;-81.378;2023-07-13T02:11:29;5.10;;;3.70;;
49444;SDS011;35323;43.080;-81.378;2023-07-13T02:14:00;2.67;;;1.98;;
49444;SDS011;35323;43.080;-81.378;2023-07-13T02:16:29;2.30;;;1.83;;
49444;SDS011;35323;43.080;-81.378;2023-07-13T02:18:57;2.03;;;1.45;;
49444;SDS011;35323;43.080;-81.378;2023-07-13T02:21:25;3.17;;;2.40;;
49444;SDS011;35323;43.080;-81.378;2023-07-13T02:23:53;4.65;;;2.38;;
49444;SDS011;35323;43.080;-81.378;2023-07-13T02:26:21;2.30;;;2.10;;
49444;SDS011;35323;43.080;-81.378;2023-07-13T02:28:49;1.67;;;1.50;;
49444;SDS011;35323;43.080;-81.378;2023-07-13T02:31:17;2.58;;;2.38;;
49444;SDS011;35323;43.080;-81.378;2023-07-13T02:33:45;2.97;;;2.38;;
49444;SDS011;35323;43.080;-81.378;2023-07-13T02:36:13;2.35;;;1.90;;
49444;SDS011;35323;43.080;-81.378;2023-07-13T02:38:45;3.80;;;2.67;;
49444;SDS011;35323;43.080;-81.378;2023-07-13T02:41:13;2.35;;;2.10;;
49444;SDS011;35323;43.080;-81.378;2023-07-13T02:43:40;5.03;;;2.38;;
49444;SDS011;35323;43.080;-81.378;2023-07-13T02:46:08;3.80;;;2.25;;
49444;SDS011;35323;43.080;-81.378;2023-07-13T02:48:37;3.15;;;2.63;;
49444;SDS011;35323;43.080;-81.378;2023-07-13T02:51:08;7.60;;;2.47;;
49444;SDS011;35323;43.080;-81.378;2023-07-13T02:53:36;5.38;;;3.70;;
49444;SDS011;35323;43.080;-81.378;2023-07-13T02:56:04;2.45;;;2.22;;
49444;SDS011;35323;43.080;-81.378;2023-07-13T02:58:32;5.50;;;3.50;;
49444;SDS011;35323;43.080;-81.378;2023-07-13T03:00:59;6.20;;;3.00;;
49444;SDS011;35323;43.080;-81.378;2023-07-13T03:03:32;14.57;;;4.90;;
49444;SDS011;35323;43.080;-81.378;2023-07-13T03:06:01;3.95;;;3.22;;
49444;SDS011;35323;43.080;-81.378;2023-07-13T03:08:30;8.07;;;4.80;;
49444;SDS011;35323;43.080;-81.378;2023-07-13T03:11:01;5.35;;;4.63;;
49444;SDS011;35323;43.080;-81.378;2023-07-13T03:13:29;7.60;;;5.53;;
49444;SDS011;35323;43.080;-81.378;2023-07-13T03:15:57;6.72;;;5.28;;
49444;SDS011;35323;43.080;-81.378;2023-07-13T03:18:26;5.90;;;5.22;;
49444;SDS011;35323;43.080;-81.378;2023-07-13T03:20:54;6.45;;;4.40;;
49444;SDS011;35323;43.080;-81.378;2023-07-13T03:23:21;8.45;;;6.50;;
49444;SDS011;35323;43.080;-81.378;2023-07-13T03:25:49;7.65;;;5.38;;
49444;SDS011;35323;43.080;-81.378;2023-07-13T03:28:17;4.10;;;3.70;;
49444;SDS011;35323;43.080;-81.378;2023-07-13T03:30:44;10.00;;;6.22;;
49444;SDS011;35323;43.080;-81.378;2023-07-13T03:33:12;5.53;;;5.03;;
49444;SDS011;35323;43.080;-81.378;2023-07-13T03:35:40;6.70;;;5.22;;
49444;SDS011;35323;43.080;-81.378;2023-07-13T03:38:08;7.63;;;5.65;;
49444;SDS011;35323;43.080;-81.378;2023-07-13T03:40:36;7.45;;;5.75;;
49444;SDS011;35323;43.080;-81.378;2023-07-13T03:43:04;6.20;;;5.47;;
49444;SDS011;35323;43.080;-81.378;2023-07-13T03:45:32;8.05;;;5.38;;
49444;SDS011;35323;43.080;-81.378;2023-07-13T03:48:00;6.03;;;5.43;;
49444;SDS011;35323;43.080;-81.378;2023-07-13T03:50:27;7.72;;;5.68;;
49444;SDS011;35323;43.080;-81.378;2023-07-13T03:52:55;6.60;;;5.40;;
49444;SDS011;35323;43.080;-81.378;2023-07-13T03:55:23;8.80;;;7.85;;
49444;SDS011;35323;43.080;-81.378;2023-07-13T03:57:53;9.48;;;7.97;;
49444;SDS011;35323;43.080;-81.378;2023-07-13T04:00:21;9.88;;;6.35;;
49444;SDS011;35323;43.080;-81.378;2023-07-13T04:02:49;10.27;;;5.82;;
49444;SDS011;35323;43.080;-81.378;2023-07-13T04:05:16;9.13;;;5.68;;
49444;SDS011;35323;43.080;-81.378;2023-07-13T04:07:44;6.90;;;5.72;;
49444;SDS011;35323;43.080;-81.378;2023-07-13T04:10:12;6.22;;;5.10;;
49444;SDS011;35323;43.080;-81.378;2023-07-13T04:12:40;8.48;;;5.95;;
49444;SDS011;35323;43.080;-81.378;2023-07-13T04:15:07;7.65;;;6.82;;
49444;SDS011;35323;43.080;-81.378;2023-07-13T04:17:35;12.98;;;7.30;;
49444;SDS011;35323;43.080;-81.378;2023-07-13T04:20:03;9.25;;;6.93;;
49444;SDS011;35323;43.080;-81.378;2023-07-13T04:22:31;8.15;;;7.22;;
49444;SDS011;35323;43.080;-81.378;2023-07-13T04:24:58;8.40;;;7.35;;
49444;SDS011;35323;43.080;-81.378;2023-07-13T04:27:26;7.07;;;5.95;;
49444;SDS011;35323;43.080;-81.378;2023-07-13T04:29:55;8.38;;;7.45;;
49444;SDS011;35323;43.080;-81.378;2023-07-13T04:32:23;9.77;;;6.25;;
49444;SDS011;35323;43.080;-81.378;2023-07-13T04:34:51;7.88;;;6.43;;
49444;SDS011;35323;43.080;-81.378;2023-07-13T04:37:20;13.57;;;7.38;;
49444;SDS011;35323;43.080;-81.378;2023-07-13T04:39:47;8.60;;;5.90;;
49444;SDS011;35323;43.080;-81.378;2023-07-13T04:42:15;8.32;;;7.15;;
49444;SDS011;35323;43.080;-81.378;2023-07-13T04:44:52;11.75;;;7.68;;
49444;SDS011;35323;43.080;-81.378;2023-07-13T04:47:20;6.88;;;6.10;;
49444;SDS011;35323;43.080;-81.378;2023-07-13T04:49:48;8.68;;;7.60;;
49444;SDS011;35323;43.080;-81.378;2023-07-13T04:52:15;9.95;;;8.00;;
49444;SDS011;35323;43.080;-81.378;2023-07-13T04:54:43;8.23;;;7.35;;
49444;SDS011;35323;43.080;-81.378;2023-07-13T04:57:11;8.07;;;6.95;;
49444;SDS011;35323;43.080;-81.378;2023-07-13T04:59:39;11.23;;;7.95;;
49444;SDS011;35323;43.080;-81.378;2023-07-13T05:02:07;8.93;;;7.03;;
49444;SDS011;35323;43.080;-81.378;2023-07-13T05:04:35;10.05;;;6.70;;
49444;SDS011;35323;43.080;-81.378;2023-07-13T05:07:02;9.50;;;7.72;;
49444;SDS011;35323;43.080;-81.378;2023-07-13T05:09:30;8.48;;;7.63;;
49444;SDS011;35323;43.080;-81.378;2023-07-13T05:11:58;10.13;;;6.72;;
49444;SDS011;35323;43.080;-81.378;2023-07-13T05:14:25;9.43;;;7.35;;
49444;SDS011;35323;43.080;-81.378;2023-07-13T05:16:53;9.80;;;7.85;;
49444;SDS011;35323;43.080;-81.378;2023-07-13T05:19:21;10.35;;;7.72;;
49444;SDS011;35323;43.080;-81.378;2023-07-13T05:21:49;12.05;;;9.25;;
49444;SDS011;35323;43.080;-81.378;2023-07-13T05:24:16;8.43;;;6.43;;
49444;SDS011;35323;43.080;-81.378;2023-07-13T05:26:51;9.77;;;7.50;;
49444;SDS011;35323;43.080;-81.378;2023-07-13T05:29:20;10.95;;;8.60;;
49444;SDS011;35323;43.080;-81.378;2023-07-13T05:31:48;9.98;;;8.18;;
49444;SDS011;35323;43.080;-81.378;2023-07-13T05:34:16;9.63;;;7.45;;
49444;SDS011;35323;43.080;-81.378;2023-07-13T05:36:44;13.60;;;9.55;;
49444;SDS011;35323;43.080;-81.378;2023-07-13T05:39:12;8.38;;;6.45;;
49444;SDS011;35323;43.080;-81.378;2023-07-13T05:41:39;6.90;;;4.93;;
49444;SDS011;35323;43.080;-81.378;2023-07-13T05:44:07;5.78;;;4.88;;
49444;SDS011;35323;43.080;-81.378;2023-07-13T05:46:35;4.97;;;3.78;;
49444;SDS011;35323;43.080;-81.378;2023-07-13T05:49:02;5.95;;;4.43;;
49444;SDS011;35323;43.080;-81.378;2023-07-13T05:51:30;4.47;;;3.53;;
49444;SDS011;35323;43.080;-81.378;2023-07-13T05:53:58;4.85;;;3.45;;
49444;SDS011;35323;43.080;-81.378;2023-07-13T05:56:25;5.32;;;4.55;;
49444;SDS011;35323;43.080;-81.378;2023-07-13T05:58:53;5.97;;;4.10;;
49444;SDS011;35323;43.080;-81.378;2023-07-13T06:01:21;6.75;;;4.10;;
49444;SDS011;35323;43.080;-81.378;2023-07-13T06:03:49;7.55;;;5.00;;
49444;SDS011;35323;43.080;-81.378;2023-07-13T06:06:17;4.88;;;4.25;;
49444;SDS011;35323;43.080;-81.378;2023-07-13T06:08:45;6.05;;;4.93;;
49444;SDS011;35323;43.080;-81.378;2023-07-13T06:11:20;4.38;;;3.30;;
49444;SDS011;35323;43.080;-81.378;2023-07-13T06:13:48;5.00;;;3.88;;
49444;SDS011;35323;43.080;-81.378;2023-07-13T06:16:16;3.78;;;2.83;;
49444;SDS011;35323;43.080;-81.378;2023-07-13T06:18:45;4.25;;;3.00;;
49444;SDS011;35323;43.080;-81.378;2023-07-13T06:21:14;5.15;;;3.67;;
49444;SDS011;35323;43.080;-81.378;2023-07-13T06:23:42;5.35;;;2.85;;
49444;SDS011;35323;43.080;-81.378;2023-07-13T06:26:13;4.30;;;3.45;;
49444;SDS011;35323;43.080;-81.378;2023-07-13T06:28:40;4.00;;;3.50;;
49444;SDS011;35323;43.080;-81.378;2023-07-13T06:31:09;6.10;;;5.35;;
49444;SDS011;35323;43.080;-81.378;2023-07-13T06:33:37;5.95;;;4.38;;
49444;SDS011;35323;43.080;-81.378;2023-07-13T06:36:06;4.47;;;3.67;;
49444;SDS011;35323;43.080;-81.378;2023-07-13T06:38:34;5.03;;;4.63;;
49444;SDS011;35323;43.080;-81.378;2023-07-13T06:41:04;7.30;;;6.30;;
49444;SDS011;35323;43.080;-81.378;2023-07-13T06:43:31;6.38;;;5.50;;
49444;SDS011;35323;43.080;-81.378;2023-07-13T06:45:59;9.90;;;7.90;;
49444;SDS011;35323;43.080;-81.378;2023-07-13T06:48:28;8.30;;;7.32;;
49444;SDS011;35323;43.080;-81.378;2023-07-13T06:50:55;10.15;;;7.95;;
49444;SDS011;35323;43.080;-81.378;2023-07-13T06:53:23;6.75;;;5.93;;
49444;SDS011;35323;43.080;-81.378;2023-07-13T06:55:50;6.50;;;5.60;;
49444;SDS011;35323;43.080;-81.378;2023-07-13T06:58:18;5.07;;;4.30;;
49444;SDS011;35323;43.080;-81.378;2023-07-13T07:00:46;4.20;;;3.58;;
49444;SDS011;35323;43.080;-81.378;2023-07-13T07:03:14;5.32;;;4.55;;
49444;SDS011;35323;43.080;-81.378;2023-07-13T07:05:41;4.88;;;3.88;;
49444;SDS011;35323;43.080;-81.378;2023-07-13T07:08:09;6.55;;;3.95;;
49444;SDS011;35323;43.080;-81.378;2023-07-13T07:10:37;6.70;;;3.55;;
49444;SDS011;35323;43.080;-81.378;2023-07-13T07:13:04;3.42;;;3.10;;
49444;SDS011;35323;43.080;-81.378;2023-07-13T07:15:35;4.85;;;4.35;;
49444;SDS011;35323;43.080;-81.378;2023-07-13T07:18:03;9.10;;;6.65;;
49444;SDS011;35323;43.080;-81.378;2023-07-13T07:20:31;9.27;;;7.32;;
49444;SDS011;35323;43.080;-81.378;2023-07-13T07:22:59;12.13;;;10.85;;
49444;SDS011;35323;43.080;-81.378;2023-07-13T07:25:27;11.48;;;9.75;;
49444;SDS011;35323;43.080;-81.378;2023-07-13T07:27:59;11.90;;;9.85;;
49444;SDS011;35323;43.080;-81.378;2023-07-13T07:30:29;13.00;;;10.70;;
49444;SDS011;35323;43.080;-81.378;2023-07-13T07:32:59;14.65;;;11.18;;
49444;SDS011;35323;43.080;-81.378;2023-07-13T07:35:31;13.15;;;11.05;;
49444;SDS011;35323;43.080;-81.378;2023-07-13T07:38:04;10.38;;;9.05;;
49444;SDS011;35323;43.080;-81.378;2023-07-13T07:40:32;11.52;;;10.27;;
49444;SDS011;35323;43.080;-81.378;2023-07-13T07:43:07;10.93;;;9.07;;
49444;SDS011;35323;43.080;-81.378;2023-07-13T07:45:35;9.55;;;8.70;;
49444;SDS011;35323;43.080;-81.378;2023-07-13T07:48:04;8.43;;;7.63;;
49444;SDS011;35323;43.080;-81.378;2023-07-13T07:50:32;11.07;;;9.20;;
49444;SDS011;35323;43.080;-81.378;2023-07-13T07:53:00;9.80;;;8.82;;
49444;SDS011;35323;43.080;-81.378;2023-07-13T07:55:29;9.98;;;8.48;;
49444;SDS011;35323;43.080;-81.378;2023-07-13T07:57:59;11.75;;;10.60;;
49444;SDS011;35323;43.080;-81.378;2023-07-13T08:00:30;9.55;;;7.88;;
49444;SDS011;35323;43.080;-81.378;2023-07-13T08:03:18;9.13;;;8.23;;
49444;SDS011;35323;43.080;-81.378;2023-07-13T08:05:52;8.82;;;8.02;;
49444;SDS011;35323;43.080;-81.378;2023-07-13T08:08:22;12.10;;;8.90;;
49444;SDS011;35323;43.080;-81.378;2023-07-13T08:10:50;8.85;;;7.95;;
49444;SDS011;35323;43.080;-81.378;2023-07-13T08:13:22;8.23;;;7.47;;
49444;SDS011;35323;43.080;-81.378;2023-07-13T08:15:50;7.07;;;6.38;;
49444;SDS011;35323;43.080;-81.378;2023-07-13T08:18:17;8.15;;;6.07;;
49444;SDS011;35323;43.080;-81.378;2023-07-13T08:20:45;6.32;;;5.70;;
49444;SDS011;35323;43.080;-81.378;2023-07-13T08:23:13;7.07;;;6.15;;
49444;SDS011;35323;43.080;-81.378;2023-07-13T08:25:41;6.68;;;6.07;;
49444;SDS011;35323;43.080;-81.378;2023-07-13T08:28:08;6.30;;;5.25;;
49444;SDS011;35323;43.080;-81.378;2023-07-13T08:30:36;3.70;;;3.38;;
49444;SDS011;35323;43.080;-81.378;2023-07-13T08:33:04;2.65;;;1.83;;
49444;SDS011;35323;43.080;-81.378;2023-07-13T08:35:32;1.88;;;1.08;;
49444;SDS011;35323;43.080;-81.378;2023-07-13T08:38:00;0.95;;;0.80;;
49444;SDS011;35323;43.080;-81.378;2023-07-13T08:40:28;2.08;;;1.10;;
49444;SDS011;35323;43.080;-81.378;2023-07-13T08:42:58;1.17;;;0.43;;
49444;SDS011;35323;43.080;-81.378;2023-07-13T08:47:55;0.75;;;0.40;;
49444;SDS011;35323;43.080;-81.378;2023-07-13T08:50:25;2.22;;;1.25;;
49444;SDS011;35323;43.080;-81.378;2023-07-13T08:52:54;1.17;;;1.05;;
49444;SDS011;35323;43.080;-81.378;2023-07-13T08:55:27;1.17;;;0.40;;
49444;SDS011;35323;43.080;-81.378;2023-07-13T08:57:59;0.50;;;0.50;;
49444;SDS011;35323;43.080;-81.378;2023-07-13T09:00:32;0.27;;;0.27;;
49444;SDS011;35323;43.080;-81.378;2023-07-13T09:03:00;0.13;;;0.13;;
49444;SDS011;35323;43.080;-81.378;2023-07-13T09:05:30;0.68;;;0.32;;
49444;SDS011;35323;43.080;-81.378;2023-07-13T09:10:45;0.47;;;0.30;;
49444;SDS011;35323;43.080;-81.378;2023-07-13T09:13:20;0.57;;;0.22;;
49444;SDS011;35323;43.080;-81.378;2023-07-13T09:15:49;1.48;;;0.45;;
49444;SDS011;35323;43.080;-81.378;2023-07-13T09:18:26;0.30;;;0.30;;
49444;SDS011;35323;43.080;-81.378;2023-07-13T09:23:23;0.70;;;0.50;;
49444;SDS011;35323;43.080;-81.378;2023-07-13T09:25:54;1.38;;;1.15;;
49444;SDS011;35323;43.080;-81.378;2023-07-13T09:28:27;1.10;;;0.40;;
49444;SDS011;35323;43.080;-81.378;2023-07-13T09:31:06;0.50;;;0.50;;
49444;SDS011;35323;43.080;-81.378;2023-07-13T09:33:35;0.43;;;0.30;;
49444;SDS011;35323;43.080;-81.378;2023-07-13T09:36:11;0.70;;;0.70;;
49444;SDS011;35323;43.080;-81.378;2023-07-13T09:38:44;0.38;;;0.30;;
49444;SDS011;35323;43.080;-81.378;2023-07-13T09:41:29;0.70;;;0.70;;
49444;SDS011;35323;43.080;-81.378;2023-07-13T09:44:27;0.17;;;0.17;;
49444;SDS011;35323;43.080;-81.378;2023-07-13T09:46:54;0.47;;;0.47;;
49444;SDS011;35323;43.080;-81.378;2023-07-13T09:49:26;0.20;;;0.20;;
49444;SDS011;35323;43.080;-81.378;2023-07-13T09:52:12;0.45;;;0.43;;
49444;SDS011;35323;43.080;-81.378;2023-07-13T09:54:47;0.50;;;0.40;;
49444;SDS011;35323;43.080;-81.378;2023-07-13T09:57:17;0.30;;;0.20;;
49444;SDS011;35323;43.080;-81.378;2023-07-13T09:59:46;2.05;;;0.50;;
49444;SDS011;35323;43.080;-81.378;2023-07-13T10:02:25;0.65;;;0.43;;
49444;SDS011;35323;43.080;-81.378;2023-07-13T10:04:57;0.82;;;0.75;;
49444;SDS011;35323;43.080;-81.378;2023-07-13T10:09:55;0.30;;;0.30;;
49444;SDS011;35323;43.080;-81.378;2023-07-13T10:12:23;0.43;;;0.43;;
49444;SDS011;35323;43.080;-81.378;2023-07-13T10:14:52;0.90;;;0.50;;
49444;SDS011;35323;43.080;-81.378;2023-07-13T10:17:42;4.63;;;1.80;;
49444;SDS011;35323;43.080;-81.378;2023-07-13T10:20:11;1.13;;;0.60;;
49444;SDS011;35323;43.080;-81.378;2023-07-13T10:22:44;3.25;;;0.50;;
49444;SDS011;35323;43.080;-81.378;2023-07-13T10:25:21;3.40;;;0.95;;
49444;SDS011;35323;43.080;-81.378;2023-07-13T10:27:53;0.47;;;0.40;;
49444;SDS011;35323;43.080;-81.378;2023-07-13T10:30:26;0.32;;;0.32;;
49444;SDS011;35323;43.080;-81.378;2023-07-13T10:33:00;2.25;;;0.75;;
49444;SDS011;35323;43.080;-81.378;2023-07-13T10:35:29;0.98;;;0.85;;
49444;SDS011;35323;43.080;-81.378;2023-07-13T10:38:01;0.80;;;0.80;;
49444;SDS011;35323;43.080;-81.378;2023-07-13T10:40:34;0.88;;;0.68;;
49444;SDS011;35323;43.080;-81.378;2023-07-13T10:43:04;0.85;;;0.70;;
49444;SDS011;35323;43.080;-81.378;2023-07-13T10:45:34;1.40;;;0.50;;
49444;SDS011;35323;43.080;-81.378;2023-07-13T10:48:03;0.28;;;0.28;;
49444;SDS011;35323;43.080;-81.378;2023-07-13T10:50:31;0.80;;;0.80;;
49444;SDS011;35323;43.080;-81.378;2023-07-13T10:53:03;0.63;;;0.47;;
49444;SDS011;35323;43.080;-81.378;2023-07-13T11:03:19;1.35;;;0.65;;
49444;SDS011;35323;43.080;-81.378;2023-07-13T11:05:49;2.15;;;0.60;;
49444;SDS011;35323;43.080;-81.378;2023-07-13T11:08:38;1.17;;;0.43;;
49444;SDS011;35323;43.080;-81.378;2023-07-13T11:21:28;0.47;;;0.22;;
49444;SDS011;35323;43.080;-81.378;2023-07-13T11:24:14;0.32;;;0.32;;
49444;SDS011;35323;43.080;-81.378;2023-07-13T11:31:54;0.30;;;0.30;;
49444;SDS011;35323;43.080;-81.378;2023-07-13T11:34:43;1.13;;;0.40;;
49444;SDS011;35323;43.080;-81.378;2023-07-13T11:37:15;0.40;;;0.40;;
49444;SDS011;35323;43.080;-81.378;2023-07-13T11:39:44;0.35;;;0.20;;
49444;SDS011;35323;43.080;-81.378;2023-07-13T11:42:15;0.30;;;0.10;;
49444;SDS011;35323;43.080;-81.378;2023-07-13T11:44:45;0.10;;;0.10;;
49444;SDS011;35323;43.080;-81.378;2023-07-13T11:47:32;0.45;;;0.45;;
49444;SDS011;35323;43.080;-81.378;2023-07-13T11:50:03;0.80;;;0.30;;
49444;SDS011;35323;43.080;-81.378;2023-07-13T11:52:33;1.38;;;0.57;;
49444;SDS011;35323;43.080;-81.378;2023-07-13T11:55:01;0.43;;;0.43;;
49444;SDS011;35323;43.080;-81.378;2023-07-13T11:57:33;1.73;;;0.50;;
49444;SDS011;35323;43.080;-81.378;2023-07-13T12:00:09;1.45;;;0.60;;
49444;SDS011;35323;43.080;-81.378;2023-07-13T12:02:39;0.77;;;0.52;;
49444;SDS011;35323;43.080;-81.378;2023-07-13T12:05:13;0.50;;;0.50;;
49444;SDS011;35323;43.080;-81.378;2023-07-13T12:07:41;1.33;;;0.65;;
49444;SDS011;35323;43.080;-81.378;2023-07-13T12:12:36;1.50;;;1.23;;
49444;SDS011;35323;43.080;-81.378;2023-07-13T12:15:07;1.48;;;0.93;;
49444;SDS011;35323;43.080;-81.378;2023-07-13T12:17:35;4.25;;;1.70;;
49444;SDS011;35323;43.080;-81.378;2023-07-13T12:20:04;1.33;;;1.15;;
49444;SDS011;35323;43.080;-81.378;2023-07-13T12:22:40;1.13;;;0.90;;
49444;SDS011;35323;43.080;-81.378;2023-07-13T12:27:40;1.73;;;1.55;;
49444;SDS011;35323;43.080;-81.378;2023-07-13T12:33:10;2.15;;;1.48;;
49444;SDS011;35323;43.080;-81.378;2023-07-13T12:35:46;1.48;;;1.20;;
49444;SDS011;35323;43.080;-81.378;2023-07-13T12:38:19;7.97;;;1.88;;
49444;SDS011;35323;43.080;-81.378;2023-07-13T12:40:49;2.35;;;1.65;;
49444;SDS011;35323;43.080;-81.378;2023-07-13T12:43:17;2.83;;;1.60;;
49444;SDS011;35323;43.080;-81.378;2023-07-13T12:46:01;2.00;;;1.50;;
49444;SDS011;35323;43.080;-81.378;2023-07-13T12:48:29;1.60;;;1.42;;
49444;SDS011;35323;43.080;-81.378;2023-07-13T12:51:13;6.82;;;3.28;;
49444;SDS011;35323;43.080;-81.378;2023-07-13T12:53:42;1.85;;;1.75;;
49444;SDS011;35323;43.080;-81.378;2023-07-13T12:56:14;2.50;;;2.25;;
49444;SDS011;35323;43.080;-81.378;2023-07-13T12:58:44;2.40;;;2.05;;
49444;SDS011;35323;43.080;-81.378;2023-07-13T13:01:16;1.73;;;1.40;;
49444;SDS011;35323;43.080;-81.378;2023-07-13T13:03:48;4.85;;;3.05;;
49444;SDS011;35323;43.080;-81.378;2023-07-13T13:08:47;2.05;;;1.60;;
49444;SDS011;35323;43.080;-81.378;2023-07-13T13:11:18;2.78;;;1.70;;
49444;SDS011;35323;43.080;-81.378;2023-07-13T13:13:46;1.90;;;1.50;;
49444;SDS011;35323;43.080;-81.378;2023-07-13T13:16:21;4.13;;;2.60;;
49444;SDS011;35323;43.080;-81.378;2023-07-13T13:18:50;4.00;;;3.10;;
49444;SDS011;35323;43.080;-81.378;2023-07-13T13:21:18;3.50;;;1.60;;
49444;SDS011;35323;43.080;-81.378;2023-07-13T13:23:46;1.95;;;1.70;;
49444;SDS011;35323;43.080;-81.378;2023-07-13T13:26:14;2.10;;;1.70;;
49444;SDS011;35323;43.080;-81.378;2023-07-13T13:28:45;3.72;;;2.38;;
49444;SDS011;35323;43.080;-81.378;2023-07-13T13:31:14;3.55;;;2.28;;
49444;SDS011;35323;43.080;-81.378;2023-07-13T13:33:43;4.72;;;2.45;;
49444;SDS011;35323;43.080;-81.378;2023-07-13T13:36:19;4.03;;;2.22;;
49444;SDS011;35323;43.080;-81.378;2023-07-13T13:38:48;1.90;;;1.70;;
49444;SDS011;35323;43.080;-81.378;2023-07-13T13:41:16;6.28;;;4.68;;
49444;SDS011;35323;43.080;-81.378;2023-07-13T13:43:44;2.85;;;2.10;;
49444;SDS011;35323;43.080;-81.378;2023-07-13T13:46:20;2.45;;;1.83;;
49444;SDS011;35323;43.080;-81.378;2023-07-13T13:48:49;3.35;;;2.30;;
49444;SDS011;35323;43.080;-81.378;2023-07-13T13:51:19;3.60;;;3.22;;
49444;SDS011;35323;43.080;-81.378;2023-07-13T13:53:47;3.72;;;2.90;;
49444;SDS011;35323;43.080;-81.378;2023-07-13T13:56:15;2.00;;;1.77;;
49444;SDS011;35323;43.080;-81.378;2023-07-13T13:58:44;2.75;;;2.03;;
49444;SDS011;35323;43.080;-81.378;2023-07-13T14:01:14;2.10;;;1.83;;
49444;SDS011;35323;43.080;-81.378;2023-07-13T14:03:44;6.97;;;3.45;;
49444;SDS011;35323;43.080;-81.378;2023-07-13T14:06:12;2.90;;;2.05;;
49444;SDS011;35323;43.080;-81.378;2023-07-13T14:08:40;2.35;;;1.98;;
49444;SDS011;35323;43.080;-81.378;2023-07-13T14:11:11;3.55;;;1.80;;
49444;SDS011;35323;43.080;-81.378;2023-07-13T14:13:44;2.65;;;2.35;;
49444;SDS011;35323;43.080;-81.378;2023-07-13T14:16:18;4.45;;;1.88;;
49444;SDS011;35323;43.080;-81.378;2023-07-13T14:18:49;2.28;;;2.13;;
49444;SDS011;35323;43.080;-81.378;2023-07-13T14:21:17;2.17;;;1.70;;
49444;SDS011;35323;43.080;-81.378;2023-07-13T14:23:48;3.10;;;1.92;;
49444;SDS011;35323;43.080;-81.378;2023-07-13T14:28:49;2.80;;;2.22;;
49444;SDS011;35323;43.080;-81.378;2023-07-13T14:31:17;3.13;;;1.75;;
49444;SDS011;35323;43.080;-81.378;2023-07-13T14:33:45;2.17;;;1.92;;
49444;SDS011;35323;43.080;-81.378;2023-07-13T14:38:49;3.45;;;2.38;;
49444;SDS011;35323;43.080;-81.378;2023-07-13T14:41:17;4.15;;;2.40;;
49444;SDS011;35323;43.080;-81.378;2023-07-13T14:43:44;3.17;;;1.90;;
49444;SDS011;35323;43.080;-81.378;2023-07-13T14:46:23;2.10;;;1.90;;
49444;SDS011;35323;43.080;-81.378;2023-07-13T14:48:52;3.42;;;2.33;;
49444;SDS011;35323;43.080;-81.378;2023-07-13T14:51:20;3.10;;;1.65;;
49444;SDS011;35323;43.080;-81.378;2023-07-13T14:53:48;3.88;;;2.70;;
49444;SDS011;35323;43.080;-81.378;2023-07-13T14:56:16;2.63;;;1.60;;
49444;SDS011;35323;43.080;-81.378;2023-07-13T14:58:44;6.68;;;3.20;;
49444;SDS011;35323;43.080;-81.378;2023-07-13T15:01:13;2.50;;;1.70;;
49444;SDS011;35323;43.080;-81.378;2023-07-13T15:03:43;2.90;;;2.63;;
49444;SDS011;35323;43.080;-81.378;2023-07-13T15:06:12;3.13;;;2.10;;
49444;SDS011;35323;43.080;-81.378;2023-07-13T15:08:40;2.40;;;1.55;;
49444;SDS011;35323;43.080;-81.378;2023-07-13T15:11:08;4.28;;;2.60;;
49444;SDS011;35323;43.080;-81.378;2023-07-13T15:13:39;1.63;;;1.40;;
49444;SDS011;35323;43.080;-81.378;2023-07-13T15:16:23;2.95;;;2.10;;
49444;SDS011;35323;43.080;-81.378;2023-07-13T15:18:51;4.53;;;2.22;;
49444;SDS011;35323;43.080;-81.378;2023-07-13T15:21:20;4.28;;;1.88;;
49444;SDS011;35323;43.080;-81.378;2023-07-13T15:23:48;2.83;;;1.63;;
49444;SDS011;35323;43.080;-81.378;2023-07-13T15:26:17;2.63;;;1.75;;
49444;SDS011;35323;43.080;-81.378;2023-07-13T15:28:45;2.22;;;1.65;;